sensor_id;sensor_type;location;lat;lon;timestamp;pressure;altitude;pressure_sealevel;temperature;humidity
71638;BME280;59485;43.542;-5.676;2023-05-03T00:01:31;101194.19;;;14.91;100.00
71638;BME280;59485;43.542;-5.676;2023-05-03T00:03:57;101190.38;;;14.92;100.00
71638;BME280;59485;43.542;-5.676;2023-05-03T00:06:22;101183.38;;;14.90;100.00
71638;BME280;59485;43.542;-5.676;2023-05-03T00:08:48;101183.78;;;14.87;100.00
71638;BME280;59485;43.542;-5.676;2023-05-03T00:11:13;101195.25;;;14.97;100.00
71638;BME280;59485;43.542;-5.676;2023-05-03T00:13:39;101196.13;;;14.97;100.00
71638;BME280;59485;43.542;-5.676;2023-05-03T00:16:05;101196.56;;;15.01;100.00
71638;BME280;59485;43.542;-5.676;2023-05-03T00:18:30;101181.47;;;14.97;100.00
71638;BME280;59485;43.542;-5.676;2023-05-03T00:20:57;101175.09;;;14.96;100.00
71638;BME280;59485;43.542;-5.676;2023-05-03T00:23:23;101180.84;;;15.01;100.00
71638;BME280;59485;43.542;-5.676;2023-05-03T00:25:56;101134.50;;;14.77;100.00
71638;BME280;59485;43.542;-5.676;2023-05-03T00:28:22;101158.13;;;14.93;100.00
71638;BME280;59485;43.542;-5.676;2023-05-03T00:30:48;101164.28;;;15.01;100.00
71638;BME280;59485;43.542;-5.676;2023-05-03T00:33:14;101152.78;;;14.98;100.00
71638;BME280;59485;43.542;-5.676;2023-05-03T00:35:41;101164.50;;;15.07;100.00
71638;BME280;59485;43.542;-5.676;2023-05-03T00:38:07;101153.66;;;15.05;100.00
71638;BME280;59485;43.542;-5.676;2023-05-03T00:40:35;101140.91;;;14.97;100.00
71638;BME280;59485;43.542;-5.676;2023-05-03T00:43:01;101144.53;;;15.11;100.00
71638;BME280;59485;43.542;-5.676;2023-05-03T00:45:29;101140.50;;;15.07;100.00
71638;BME280;59485;43.542;-5.676;2023-05-03T00:47:55;101140.69;;;15.06;100.00
71638;BME280;59485;43.542;-5.676;2023-05-03T00:50:20;101135.19;;;15.06;100.00
71638;BME280;59485;43.542;-5.676;2023-05-03T00:52:46;101137.31;;;15.10;100.00
71638;BME280;59485;43.542;-5.676;2023-05-03T00:55:12;101112.25;;;14.98;100.00
71638;BME280;59485;43.542;-5.676;2023-05-03T00:57:38;101099.50;;;14.91;100.00
71638;BME280;59485;43.542;-5.676;2023-05-03T01:00:05;101121.16;;;15.07;100.00
71638;BME280;59485;43.542;-5.676;2023-05-03T01:02:33;101123.31;;;15.12;100.00
71638;BME280;59485;43.542;-5.676;2023-05-03T01:04:59;101081.22;;;14.83;100.00
71638;BME280;59485;43.542;-5.676;2023-05-03T01:15:49;101098.22;;;15.00;100.00
71638;BME280;59485;43.542;-5.676;2023-05-03T01:18:21;101093.97;;;14.97;100.00
71638;BME280;59485;43.542;-5.676;2023-05-03T01:20:49;101070.00;;;14.85;100.00
71638;BME280;59485;43.542;-5.676;2023-05-03T01:28:47;101086.53;;;14.91;100.00
71638;BME280;59485;43.542;-5.676;2023-05-03T01:31:18;101097.16;;;14.94;100.00
71638;BME280;59485;43.542;-5.676;2023-05-03T01:36:30;101077.41;;;14.84;100.00
71638;BME280;59485;43.542;-5.676;2023-05-03T01:38:58;101069.53;;;14.81;100.00
71638;BME280;59485;43.542;-5.676;2023-05-03T01:41:25;101059.97;;;14.71;100.00
71638;BME280;59485;43.542;-5.676;2023-05-03T01:43:52;101062.97;;;14.82;100.00
71638;BME280;59485;43.542;-5.676;2023-05-03T01:46:19;101049.78;;;14.71;100.00
71638;BME280;59485;43.542;-5.676;2023-05-03T01:48:46;101050.63;;;14.65;100.00
71638;BME280;59485;43.542;-5.676;2023-05-03T01:51:11;101063.38;;;14.73;100.00
71638;BME280;59485;43.542;-5.676;2023-05-03T01:53:37;101051.06;;;14.69;100.00
71638;BME280;59485;43.542;-5.676;2023-05-03T01:56:02;101064.22;;;14.73;100.00
71638;BME280;59485;43.542;-5.676;2023-05-03T01:58:28;101047.69;;;14.67;100.00
71638;BME280;59485;43.542;-5.676;2023-05-03T02:00:53;101062.09;;;14.69;100.00
71638;BME280;59485;43.542;-5.676;2023-05-03T02:03:19;101051.50;;;14.66;100.00
71638;BME280;59485;43.542;-5.676;2023-05-03T02:05:45;101055.31;;;14.71;100.00
71638;BME280;59485;43.542;-5.676;2023-05-03T02:08:10;101047.69;;;14.67;100.00
71638;BME280;59485;43.542;-5.676;2023-05-03T02:10:36;101044.91;;;14.67;100.00
71638;BME280;59485;43.542;-5.676;2023-05-03T02:13:01;101056.16;;;14.72;100.00
71638;BME280;59485;43.542;-5.676;2023-05-03T02:15:27;101052.75;;;14.70;100.00
71638;BME280;59485;43.542;-5.676;2023-05-03T02:17:53;101047.69;;;14.67;100.00
71638;BME280;59485;43.542;-5.676;2023-05-03T02:20:19;101054.47;;;14.71;100.00
71638;BME280;59485;43.542;-5.676;2023-05-03T02:22:45;101059.13;;;14.77;100.00
71638;BME280;59485;43.542;-5.676;2023-05-03T02:25:10;101020.50;;;14.57;100.00
71638;BME280;59485;43.542;-5.676;2023-05-03T02:27:36;101037.47;;;14.60;100.00
71638;BME280;59485;43.542;-5.676;2023-05-03T02:30:02;101054.25;;;14.72;100.00
71638;BME280;59485;43.542;-5.676;2023-05-03T02:32:28;101017.50;;;14.52;100.00
71638;BME280;59485;43.542;-5.676;2023-05-03T02:34:53;101032.59;;;14.56;100.00
71638;BME280;59485;43.542;-5.676;2023-05-03T02:37:19;101008.59;;;14.43;100.00
71638;BME280;59485;43.542;-5.676;2023-05-03T02:39:45;101030.47;;;14.58;100.00
71638;BME280;59485;43.542;-5.676;2023-05-03T02:42:10;101049.16;;;14.62;100.00
71638;BME280;59485;43.542;-5.676;2023-05-03T02:44:36;101046.59;;;14.61;100.00
71638;BME280;59485;43.542;-5.676;2023-05-03T02:47:01;101039.56;;;14.58;100.00
71638;BME280;59485;43.542;-5.676;2023-05-03T02:49:27;101026.84;;;14.51;100.00
71638;BME280;59485;43.542;-5.676;2023-05-03T02:51:53;101036.81;;;14.58;100.00
71638;BME280;59485;43.542;-5.676;2023-05-03T02:54:18;101040.00;;;14.62;100.00
71638;BME280;59485;43.542;-5.676;2023-05-03T02:56:44;101035.75;;;14.59;100.00
71638;BME280;59485;43.542;-5.676;2023-05-03T02:59:09;101010.94;;;14.46;100.00
71638;BME280;59485;43.542;-5.676;2023-05-03T03:01:36;101014.09;;;14.50;100.00
71638;BME280;59485;43.542;-5.676;2023-05-03T03:04:01;101010.72;;;14.54;100.00
71638;BME280;59485;43.542;-5.676;2023-05-03T03:06:27;101021.34;;;14.57;100.00
71638;BME280;59485;43.542;-5.676;2023-05-03T03:08:52;101027.50;;;14.66;100.00
71638;BME280;59485;43.542;-5.676;2023-05-03T03:11:18;101005.22;;;14.54;100.00
71638;BME280;59485;43.542;-5.676;2023-05-03T03:13:44;101022.19;;;14.64;100.00
71638;BME280;59485;43.542;-5.676;2023-05-03T03:16:09;101027.28;;;14.68;100.00
71638;BME280;59485;43.542;-5.676;2023-05-03T03:18:35;101022.59;;;14.68;100.00
71638;BME280;59485;43.542;-5.676;2023-05-03T03:21:02;101020.28;;;14.72;100.00
71638;BME280;59485;43.542;-5.676;2023-05-03T03:23:28;100994.38;;;14.59;100.00
71638;BME280;59485;43.542;-5.676;2023-05-03T03:25:53;101003.72;;;14.72;100.00
71638;BME280;59485;43.542;-5.676;2023-05-03T03:28:19;101003.31;;;14.75;100.00
71638;BME280;59485;43.542;-5.676;2023-05-03T03:30:44;100982.72;;;14.64;100.00
71638;BME280;59485;43.542;-5.676;2023-05-03T03:33:10;100978.28;;;14.56;100.00
71638;BME280;59485;43.542;-5.676;2023-05-03T03:35:36;101006.28;;;14.80;100.00
71638;BME280;59485;43.542;-5.676;2023-05-03T03:38:03;100973.38;;;14.72;100.00
71638;BME280;59485;43.542;-5.676;2023-05-03T03:40:28;100990.13;;;14.77;100.00
71638;BME280;59485;43.542;-5.676;2023-05-03T03:42:54;100982.94;;;14.76;100.00
71638;BME280;59485;43.542;-5.676;2023-05-03T03:45:20;100993.53;;;14.79;100.00
71638;BME280;59485;43.542;-5.676;2023-05-03T03:47:45;100992.69;;;14.78;100.00
71638;BME280;59485;43.542;-5.676;2023-05-03T03:50:11;100978.03;;;14.71;100.00
71638;BME280;59485;43.542;-5.676;2023-05-03T03:52:36;100959.38;;;14.67;100.00
71638;BME280;59485;43.542;-5.676;2023-05-03T03:55:02;100965.31;;;14.63;100.00
71638;BME280;59485;43.542;-5.676;2023-05-03T03:57:27;100961.91;;;14.68;100.00
71638;BME280;59485;43.542;-5.676;2023-05-03T03:59:57;100972.31;;;14.73;100.00
71638;BME280;59485;43.542;-5.676;2023-05-03T04:02:24;100966.38;;;14.76;100.00
71638;BME280;59485;43.542;-5.676;2023-05-03T04:04:50;100965.28;;;14.77;100.00
71638;BME280;59485;43.542;-5.676;2023-05-03T04:07:15;100963.84;;;14.74;100.00
71638;BME280;59485;43.542;-5.676;2023-05-03T04:09:41;100943.88;;;14.72;100.00
71638;BME280;59485;43.542;-5.676;2023-05-03T04:12:06;100958.09;;;14.76;100.00
71638;BME280;59485;43.542;-5.676;2023-05-03T04:14:32;100945.34;;;14.68;100.00
71638;BME280;59485;43.542;-5.676;2023-05-03T04:16:58;100939.22;;;14.73;100.00
71638;BME280;59485;43.542;-5.676;2023-05-03T04:19:24;100947.91;;;14.83;100.00
71638;BME280;59485;43.542;-5.676;2023-05-03T04:21:51;100932.19;;;14.70;100.00
71638;BME280;59485;43.542;-5.676;2023-05-03T04:24:16;100907.78;;;14.60;100.00
71638;BME280;59485;43.542;-5.676;2023-05-03T04:26:42;100923.28;;;14.75;100.00
71638;BME280;59485;43.542;-5.676;2023-05-03T04:29:08;100938.56;;;14.84;100.00
71638;BME280;59485;43.542;-5.676;2023-05-03T04:31:37;100942.38;;;14.89;100.00
71638;BME280;59485;43.542;-5.676;2023-05-03T04:34:04;100941.50;;;14.89;100.00
71638;BME280;59485;43.542;-5.676;2023-05-03T04:36:30;100938.97;;;14.87;100.00
71638;BME280;59485;43.542;-5.676;2023-05-03T04:38:57;100938.97;;;14.87;100.00
71638;BME280;59485;43.542;-5.676;2023-05-03T04:41:22;100934.94;;;14.90;100.00
71638;BME280;59485;43.542;-5.676;2023-05-03T04:43:48;100911.81;;;14.78;100.00
71638;BME280;59485;43.542;-5.676;2023-05-03T04:46:14;100914.34;;;14.79;100.00
71638;BME280;59485;43.542;-5.676;2023-05-03T04:48:40;100915.63;;;14.83;100.00
71638;BME280;59485;43.542;-5.676;2023-05-03T04:51:06;100930.47;;;14.89;100.00
71638;BME280;59485;43.542;-5.676;2023-05-03T04:53:32;100879.16;;;14.55;100.00
71638;BME280;59485;43.542;-5.676;2023-05-03T04:55:57;100933.66;;;14.86;100.00
71638;BME280;59485;43.542;-5.676;2023-05-03T04:58:23;100925.81;;;14.83;100.00
71638;BME280;59485;43.542;-5.676;2023-05-03T05:00:48;100926.03;;;14.81;100.00
71638;BME280;59485;43.542;-5.676;2023-05-03T05:03:14;100926.66;;;14.77;100.00
71638;BME280;59485;43.542;-5.676;2023-05-03T05:05:40;100888.06;;;14.63;100.00
71638;BME280;59485;43.542;-5.676;2023-05-03T05:08:05;100860.69;;;14.55;100.00
71638;BME280;59485;43.542;-5.676;2023-05-03T05:10:31;100914.78;;;14.83;100.00
71638;BME280;59485;43.542;-5.676;2023-05-03T05:13:00;100905.03;;;14.74;100.00
71638;BME280;59485;43.542;-5.676;2023-05-03T05:15:26;100904.81;;;14.75;100.00
71638;BME280;59485;43.542;-5.676;2023-05-03T05:17:51;100890.41;;;14.67;100.00
71638;BME280;59485;43.542;-5.676;2023-05-03T05:20:17;100895.69;;;14.61;100.00
71638;BME280;59485;43.542;-5.676;2023-05-03T05:22:42;100906.50;;;14.70;100.00
71638;BME280;59485;43.542;-5.676;2023-05-03T05:25:08;100898.03;;;14.64;100.00
71638;BME280;59485;43.542;-5.676;2023-05-03T05:27:34;100888.47;;;14.60;100.00
71638;BME280;59485;43.542;-5.676;2023-05-03T05:30:00;100899.09;;;14.70;100.00
71638;BME280;59485;43.542;-5.676;2023-05-03T05:32:26;100883.63;;;14.56;100.00
71638;BME280;59485;43.542;-5.676;2023-05-03T05:34:51;100866.66;;;14.46;100.00
71638;BME280;59485;43.542;-5.676;2023-05-03T05:37:21;100893.59;;;14.57;100.00
71638;BME280;59485;43.542;-5.676;2023-05-03T05:39:47;100909.28;;;14.70;100.00
71638;BME280;59485;43.542;-5.676;2023-05-03T05:42:12;100892.53;;;14.64;100.00
71638;BME280;59485;43.542;-5.676;2023-05-03T05:44:38;100892.94;;;14.61;100.00
71638;BME280;59485;43.542;-5.676;2023-05-03T05:47:04;100889.31;;;14.68;100.00
71638;BME280;59485;43.542;-5.676;2023-05-03T05:49:30;100889.31;;;14.68;100.00
71638;BME280;59485;43.542;-5.676;2023-05-03T05:51:56;100877.44;;;14.60;100.00
71638;BME280;59485;43.542;-5.676;2023-05-03T05:54:22;100894.84;;;14.74;100.00
71638;BME280;59485;43.542;-5.676;2023-05-03T05:56:47;100887.63;;;14.73;100.00
71638;BME280;59485;43.542;-5.676;2023-05-03T05:59:12;100902.47;;;14.79;100.00
71638;BME280;59485;43.542;-5.676;2023-05-03T06:01:38;100889.31;;;14.81;100.00
71638;BME280;59485;43.542;-5.676;2023-05-03T06:04:09;100870.00;;;14.74;100.00
71638;BME280;59485;43.542;-5.676;2023-05-03T06:06:34;100883.97;;;14.92;100.00
71638;BME280;59485;43.542;-5.676;2023-05-03T06:09:01;100870.19;;;14.92;100.00
71638;BME280;59485;43.542;-5.676;2023-05-03T06:11:27;100875.25;;;14.95;100.00
71638;BME280;59485;43.542;-5.676;2023-05-03T06:13:54;100848.34;;;14.84;100.00
71638;BME280;59485;43.542;-5.676;2023-05-03T06:16:20;100880.09;;;15.07;100.00
71638;BME280;59485;43.542;-5.676;2023-05-03T06:18:46;100883.25;;;15.17;100.00
71638;BME280;59485;43.542;-5.676;2023-05-03T06:21:12;100870.50;;;15.16;100.00
71638;BME280;59485;43.542;-5.676;2023-05-03T06:23:37;100867.72;;;15.22;100.00
71638;BME280;59485;43.542;-5.676;2023-05-03T06:26:05;100878.31;;;15.32;100.00
71638;BME280;59485;43.542;-5.676;2023-05-03T06:28:30;100854.34;;;15.26;100.00
71638;BME280;59485;43.542;-5.676;2023-05-03T06:30:56;100873.16;;;15.42;100.00
71638;BME280;59485;43.542;-5.676;2023-05-03T06:33:21;100879.06;;;15.52;100.00
71638;BME280;59485;43.542;-5.676;2023-05-03T06:35:47;100880.97;;;15.58;100.00
71638;BME280;59485;43.542;-5.676;2023-05-03T06:38:12;100876.03;;;15.67;100.00
71638;BME280;59485;43.542;-5.676;2023-05-03T06:40:38;100868.00;;;15.65;100.00
71638;BME280;59485;43.542;-5.676;2023-05-03T06:43:06;100866.88;;;15.73;100.00
71638;BME280;59485;43.542;-5.676;2023-05-03T06:45:31;100866.66;;;15.74;100.00
71638;BME280;59485;43.542;-5.676;2023-05-03T06:47:57;100871.94;;;15.76;100.00
71638;BME280;59485;43.542;-5.676;2023-05-03T06:50:22;100863.38;;;15.84;100.00
71638;BME280;59485;43.542;-5.676;2023-05-03T06:52:48;100839.19;;;15.80;100.00
71638;BME280;59485;43.542;-5.676;2023-05-03T06:55:15;100850.38;;;15.91;100.00
71638;BME280;59485;43.542;-5.676;2023-05-03T06:57:40;100845.03;;;15.96;100.00
71638;BME280;59485;43.542;-5.676;2023-05-03T07:00:09;100846.72;;;15.97;100.00
71638;BME280;59485;43.542;-5.676;2023-05-03T07:02:35;100848.13;;;16.06;100.00
71638;BME280;59485;43.542;-5.676;2023-05-03T07:05:01;100847.41;;;16.18;100.00
71638;BME280;59485;43.542;-5.676;2023-05-03T07:07:27;100840.19;;;16.17;100.00
71638;BME280;59485;43.542;-5.676;2023-05-03T07:09:52;100824.22;;;16.19;100.00
71638;BME280;59485;43.542;-5.676;2023-05-03T07:12:18;100844.63;;;16.42;100.00
71638;BME280;59485;43.542;-5.676;2023-05-03T07:14:43;100844.19;;;16.45;100.00
71638;BME280;59485;43.542;-5.676;2023-05-03T07:17:09;100827.50;;;16.52;100.00
71638;BME280;59485;43.542;-5.676;2023-05-03T07:19:34;100830.84;;;16.61;100.00
71638;BME280;59485;43.542;-5.676;2023-05-03T07:22:01;100827.78;;;16.69;100.00
71638;BME280;59485;43.542;-5.676;2023-05-03T07:24:28;100818.97;;;16.78;100.00
71638;BME280;59485;43.542;-5.676;2023-05-03T07:26:53;100818.25;;;16.83;100.00
71638;BME280;59485;43.542;-5.676;2023-05-03T07:29:19;100827.09;;;16.92;100.00
71638;BME280;59485;43.542;-5.676;2023-05-03T07:31:45;100802.03;;;16.86;100.00
71638;BME280;59485;43.542;-5.676;2023-05-03T07:34:11;100820.03;;;16.96;100.00
71638;BME280;59485;43.542;-5.676;2023-05-03T07:36:38;100830.34;;;17.07;100.00
71638;BME280;59485;43.542;-5.676;2023-05-03T07:39:03;100824.00;;;17.18;100.00
71638;BME280;59485;43.542;-5.676;2023-05-03T07:41:29;100808.84;;;17.20;100.00
71638;BME280;59485;43.542;-5.676;2023-05-03T07:43:55;100822.94;;;17.19;100.00
71638;BME280;59485;43.542;-5.676;2023-05-03T07:46:21;100795.84;;;17.21;100.00
71638;BME280;59485;43.542;-5.676;2023-05-03T07:48:47;100813.06;;;17.41;100.00
71638;BME280;59485;43.542;-5.676;2023-05-03T07:51:13;100798.13;;;17.42;100.00
71638;BME280;59485;43.542;-5.676;2023-05-03T07:53:38;100816.41;;;17.61;100.00
71638;BME280;59485;43.542;-5.676;2023-05-03T07:56:07;100809.00;;;17.55;100.00
71638;BME280;59485;43.542;-5.676;2023-05-03T07:58:33;100817.28;;;17.74;100.00
71638;BME280;59485;43.542;-5.676;2023-05-03T08:00:58;100822.28;;;17.83;100.00
71638;BME280;59485;43.542;-5.676;2023-05-03T08:03:24;100809.25;;;17.84;100.00
71638;BME280;59485;43.542;-5.676;2023-05-03T08:05:49;100802.75;;;17.90;100.00
71638;BME280;59485;43.542;-5.676;2023-05-03T08:08:15;100801.06;;;18.00;100.00
71638;BME280;59485;43.542;-5.676;2023-05-03T08:10:40;100801.56;;;18.09;100.00
71638;BME280;59485;43.542;-5.676;2023-05-03T08:13:06;100796.16;;;18.14;100.00
71638;BME280;59485;43.542;-5.676;2023-05-03T08:15:32;100806.28;;;17.97;100.00
71638;BME280;59485;43.542;-5.676;2023-05-03T08:17:58;100803.34;;;17.92;100.00
71638;BME280;59485;43.542;-5.676;2023-05-03T08:20:24;100793.84;;;17.88;100.00
71638;BME280;59485;43.542;-5.676;2023-05-03T08:22:54;100790.00;;;17.89;100.00
71638;BME280;59485;43.542;-5.676;2023-05-03T08:25:23;100806.28;;;17.97;100.00
71638;BME280;59485;43.542;-5.676;2023-05-03T08:27:50;100800.34;;;17.93;100.00
71638;BME280;59485;43.542;-5.676;2023-05-03T08:30:16;100792.50;;;17.90;100.00
71638;BME280;59485;43.542;-5.676;2023-05-03T08:32:42;100797.38;;;18.18;100.00
71638;BME280;59485;43.542;-5.676;2023-05-03T08:35:07;100778.09;;;18.23;100.00
71638;BME280;59485;43.542;-5.676;2023-05-03T08:37:37;100795.00;;;18.57;100.00
71638;BME280;59485;43.542;-5.676;2023-05-03T08:40:04;100776.63;;;18.67;100.00
71638;BME280;59485;43.542;-5.676;2023-05-03T08:42:31;100775.03;;;18.83;100.00
71638;BME280;59485;43.542;-5.676;2023-05-03T08:44:58;100779.59;;;19.01;100.00
71638;BME280;59485;43.542;-5.676;2023-05-03T08:47:23;100771.81;;;19.15;100.00
71638;BME280;59485;43.542;-5.676;2023-05-03T08:49:52;100761.63;;;19.20;100.00
71638;BME280;59485;43.542;-5.676;2023-05-03T08:52:18;100779.06;;;19.44;100.00
71638;BME280;59485;43.542;-5.676;2023-05-03T08:54:45;100768.81;;;19.33;100.00
71638;BME280;59485;43.542;-5.676;2023-05-03T08:57:13;100788.22;;;19.56;100.00
71638;BME280;59485;43.542;-5.676;2023-05-03T09:00:05;100785.63;;;19.66;100.00
71638;BME280;59485;43.542;-5.676;2023-05-03T09:02:35;100771.41;;;19.79;100.00
71638;BME280;59485;43.542;-5.676;2023-05-03T09:05:49;100749.56;;;19.71;100.00
71638;BME280;59485;43.542;-5.676;2023-05-03T09:08:01;100739.81;;;19.85;100.00
71638;BME280;59485;43.542;-5.676;2023-05-03T09:10:28;100736.06;;;19.97;100.00
71638;BME280;59485;43.542;-5.676;2023-05-03T09:13:00;100761.72;;;19.99;100.00
71638;BME280;59485;43.542;-5.676;2023-05-03T09:15:29;100754.63;;;19.74;100.00
71638;BME280;59485;43.542;-5.676;2023-05-03T09:18:17;100767.81;;;19.51;100.00
71638;BME280;59485;43.542;-5.676;2023-05-03T09:20:44;100752.91;;;19.28;100.00
71638;BME280;59485;43.542;-5.676;2023-05-03T09:23:28;100755.78;;;19.62;100.00
71638;BME280;59485;43.542;-5.676;2023-05-03T09:25:54;100754.88;;;19.73;100.00
71638;BME280;59485;43.542;-5.676;2023-05-03T09:28:20;100752.94;;;19.90;100.00
71638;BME280;59485;43.542;-5.676;2023-05-03T09:30:47;100745.69;;;19.89;100.00
71638;BME280;59485;43.542;-5.676;2023-05-03T09:33:13;100739.72;;;19.97;100.00
71638;BME280;59485;43.542;-5.676;2023-05-03T09:36:09;100751.94;;;19.79;100.00
71638;BME280;59485;43.542;-5.676;2023-05-03T09:38:35;100749.16;;;19.79;100.00
71638;BME280;59485;43.542;-5.676;2023-05-03T09:41:02;100750.88;;;19.52;100.00
71638;BME280;59485;43.542;-5.676;2023-05-03T09:43:30;100761.22;;;19.68;100.00
71638;BME280;59485;43.542;-5.676;2023-05-03T09:48:35;100760.25;;;19.63;100.00
71638;BME280;59485;43.542;-5.676;2023-05-03T09:51:02;100768.41;;;19.53;100.00
71638;BME280;59485;43.542;-5.676;2023-05-03T09:53:32;100748.63;;;19.37;100.00
71638;BME280;59485;43.542;-5.676;2023-05-03T09:56:02;100769.50;;;19.23;100.00
71638;BME280;59485;43.542;-5.676;2023-05-03T09:58:28;100771.59;;;19.33;100.00
71638;BME280;59485;43.542;-5.676;2023-05-03T10:00:59;100785.63;;;19.38;100.00
71638;BME280;59485;43.542;-5.676;2023-05-03T10:03:43;100784.00;;;19.42;100.00
71638;BME280;59485;43.542;-5.676;2023-05-03T10:06:34;100780.94;;;19.27;100.00
71638;BME280;59485;43.542;-5.676;2023-05-03T10:09:14;100788.59;;;19.20;100.00
71638;BME280;59485;43.542;-5.676;2023-05-03T10:11:48;100785.50;;;19.04;100.00
71638;BME280;59485;43.542;-5.676;2023-05-03T10:14:15;100792.25;;;19.08;100.00
71638;BME280;59485;43.542;-5.676;2023-05-03T10:16:43;100794.88;;;19.15;100.00
71638;BME280;59485;43.542;-5.676;2023-05-03T10:22:02;100793.56;;;19.06;100.00
71638;BME280;59485;43.542;-5.676;2023-05-03T10:24:35;100785.75;;;18.91;100.00
71638;BME280;59485;43.542;-5.676;2023-05-03T10:27:01;100787.09;;;18.89;100.00
71638;BME280;59485;43.542;-5.676;2023-05-03T10:32:26;100789.66;;;18.79;100.00
71638;BME280;59485;43.542;-5.676;2023-05-03T10:35:07;100789.31;;;18.75;100.00
71638;BME280;59485;43.542;-5.676;2023-05-03T10:37:33;100785.69;;;18.51;100.00
71638;BME280;59485;43.542;-5.676;2023-05-03T10:40:13;100790.97;;;18.53;100.00
71638;BME280;59485;43.542;-5.676;2023-05-03T10:42:53;100797.41;;;18.42;100.00
71638;BME280;59485;43.542;-5.676;2023-05-03T10:45:25;100777.47;;;18.21;100.00
71638;BME280;59485;43.542;-5.676;2023-05-03T10:50:38;100787.97;;;18.19;100.00
71638;BME280;59485;43.542;-5.676;2023-05-03T10:53:04;100779.72;;;18.01;100.00
71638;BME280;59485;43.542;-5.676;2023-05-03T10:55:30;100778.03;;;17.88;100.00
71638;BME280;59485;43.542;-5.676;2023-05-03T10:57:57;100792.28;;;18.04;100.00
71638;BME280;59485;43.542;-5.676;2023-05-03T11:00:32;100788.91;;;18.02;100.00
71638;BME280;59485;43.542;-5.676;2023-05-03T11:05:48;100766.31;;;17.75;100.00
71638;BME280;59485;43.542;-5.676;2023-05-03T11:08:16;100780.78;;;17.77;100.00
71638;BME280;59485;43.542;-5.676;2023-05-03T11:10:46;100776.94;;;17.78;100.00
71638;BME280;59485;43.542;-5.676;2023-05-03T11:13:12;100764.59;;;17.62;100.00
71638;BME280;59485;43.542;-5.676;2023-05-03T11:15:38;100776.66;;;17.68;100.00
71638;BME280;59485;43.542;-5.676;2023-05-03T11:18:08;100779.22;;;17.81;100.00
71638;BME280;59485;43.542;-5.676;2023-05-03T11:20:34;100771.38;;;17.78;100.00
71638;BME280;59485;43.542;-5.676;2023-05-03T11:23:01;100781.31;;;17.97;100.00
71638;BME280;59485;43.542;-5.676;2023-05-03T11:25:27;100757.94;;;18.16;100.00
71638;BME280;59485;43.542;-5.676;2023-05-03T11:27:53;100744.66;;;18.42;100.00
71638;BME280;59485;43.542;-5.676;2023-05-03T11:30:18;100738.22;;;18.53;100.00
71638;BME280;59485;43.542;-5.676;2023-05-03T11:32:44;100743.16;;;18.74;100.00
71638;BME280;59485;43.542;-5.676;2023-05-03T11:35:12;100738.66;;;18.96;100.00
71638;BME280;59485;43.542;-5.676;2023-05-03T11:37:38;100735.19;;;19.18;100.00
71638;BME280;59485;43.542;-5.676;2023-05-03T11:40:06;100714.78;;;19.12;100.00
71638;BME280;59485;43.542;-5.676;2023-05-03T11:42:32;100727.41;;;19.31;100.00
71638;BME280;59485;43.542;-5.676;2023-05-03T11:44:59;100721.28;;;19.46;100.00
71638;BME280;59485;43.542;-5.676;2023-05-03T11:47:26;100698.91;;;19.69;100.00
71638;BME280;59485;43.542;-5.676;2023-05-03T11:49:52;100704.03;;;20.11;100.00
71638;BME280;59485;43.542;-5.676;2023-05-03T11:52:22;100692.47;;;20.19;100.00
71638;BME280;59485;43.542;-5.676;2023-05-03T11:54:49;100692.38;;;20.31;100.00
71638;BME280;59485;43.542;-5.676;2023-05-03T11:57:15;100693.97;;;20.43;100.00
71638;BME280;59485;43.542;-5.676;2023-05-03T11:59:43;100689.47;;;20.86;100.00
71638;BME280;59485;43.542;-5.676;2023-05-03T12:02:13;100682.69;;;20.98;100.00
71638;BME280;59485;43.542;-5.676;2023-05-03T12:04:41;100682.13;;;21.23;100.00
71638;BME280;59485;43.542;-5.676;2023-05-03T12:07:09;100661.09;;;21.38;100.00
71638;BME280;59485;43.542;-5.676;2023-05-03T12:09:35;100639.00;;;21.31;100.00
71638;BME280;59485;43.542;-5.676;2023-05-03T12:12:02;100675.03;;;21.69;100.00
71638;BME280;59485;43.542;-5.676;2023-05-03T12:14:55;100680.31;;;21.66;100.00
71638;BME280;59485;43.542;-5.676;2023-05-03T12:17:37;100653.59;;;21.75;100.00
71638;BME280;59485;43.542;-5.676;2023-05-03T12:20:20;100656.63;;;21.37;100.00
71638;BME280;59485;43.542;-5.676;2023-05-03T12:22:54;100656.59;;;21.10;100.00
71638;BME280;59485;43.542;-5.676;2023-05-03T12:25:20;100644.00;;;21.02;100.00
71638;BME280;59485;43.542;-5.676;2023-05-03T12:27:47;100673.25;;;21.26;100.00
71638;BME280;59485;43.542;-5.676;2023-05-03T12:30:13;100655.78;;;21.36;100.00
71638;BME280;59485;43.542;-5.676;2023-05-03T12:32:39;100656.53;;;21.58;100.00
71638;BME280;59485;43.542;-5.676;2023-05-03T12:35:07;100641.13;;;21.51;100.00
71638;BME280;59485;43.542;-5.676;2023-05-03T12:37:34;100641.91;;;21.78;100.00
71638;BME280;59485;43.542;-5.676;2023-05-03T12:39:59;100627.50;;;21.54;100.00
71638;BME280;59485;43.542;-5.676;2023-05-03T12:42:26;100646.34;;;21.74;100.00
71638;BME280;59485;43.542;-5.676;2023-05-03T12:44:56;100653.09;;;21.83;100.00
71638;BME280;59485;43.542;-5.676;2023-05-03T12:47:22;100644.34;;;21.69;100.00
71638;BME280;59485;43.542;-5.676;2023-05-03T12:49:47;100637.41;;;21.72;100.00
71638;BME280;59485;43.542;-5.676;2023-05-03T12:52:13;100642.44;;;21.75;100.00
71638;BME280;59485;43.542;-5.676;2023-05-03T12:54:38;100645.81;;;21.77;100.00
71638;BME280;59485;43.542;-5.676;2023-05-03T12:57:05;100635.03;;;21.54;100.00
71638;BME280;59485;43.542;-5.676;2023-05-03T12:59:31;100625.19;;;21.46;100.00
71638;BME280;59485;43.542;-5.676;2023-05-03T13:01:57;100628.75;;;21.37;100.00